createdAt,value
2018-11-05T00:02:20.773Z,72.23
2018-11-05T00:04:48.915Z,64.47
2018-11-05T00:07:17.038Z,73.80
2018-11-05T00:09:45.182Z,69.47
2018-11-05T00:12:13.369Z,74.77
2018-11-05T00:14:41.520Z,84.97
2018-11-05T00:17:09.766Z,70.37
2018-11-05T00:19:37.859Z,71.67
2018-11-05T00:22:06.725Z,67.43
2018-11-05T00:24:35.065Z,85.90
2018-11-05T00:27:03.234Z,78.63
2018-11-05T00:29:31.465Z,77.87
2018-11-05T00:31:59.598Z,76.67
2018-11-05T00:34:27.769Z,95.87
2018-11-05T00:36:55.911Z,76.97
2018-11-05T00:39:24.186Z,91.07
2018-11-05T00:41:52.378Z,79.37
2018-11-05T00:44:23.549Z,85.83
2018-11-05T00:46:51.715Z,88.67
2018-11-05T00:49:19.968Z,93.67
2018-11-05T00:51:48.092Z,81.50
2018-11-05T00:54:16.295Z,91.47
2018-11-05T00:56:44.453Z,81.77
2018-11-05T00:59:12.569Z,93.30
2018-11-05T01:01:40.863Z,104.20
2018-11-05T01:04:09.005Z,77.80
2018-11-05T01:06:37.197Z,91.97
2018-11-05T01:09:06.691Z,96.07
2018-11-05T01:11:34.846Z,96.47
2018-11-05T01:14:03.056Z,95.60
2018-11-05T01:16:31.197Z,80.70
2018-11-05T01:18:59.307Z,98.00
2018-11-05T01:21:27.446Z,89.73
2018-11-05T01:23:55.626Z,86.37
2018-11-05T01:26:23.836Z,101.40
2018-11-05T01:28:52.040Z,105.47
2018-11-05T01:31:20.242Z,102.17
2018-11-05T01:33:48.379Z,99.70
2018-11-05T01:36:16.522Z,98.87
2018-11-05T01:38:44.631Z,100.97
2018-11-05T01:41:12.764Z,104.10
2018-11-05T01:43:40.947Z,96.40
2018-11-05T01:46:09.089Z,101.47
2018-11-05T01:48:37.213Z,101.67
2018-11-05T01:51:06.279Z,87.63
2018-11-05T01:53:34.556Z,104.67
2018-11-05T01:56:02.747Z,95.10
2018-11-05T01:58:30.891Z,94.77
2018-11-05T02:00:59.011Z,103.87
2018-11-05T02:03:27.141Z,90.23
2018-11-05T02:05:55.267Z,97.67
2018-11-05T02:08:23.391Z,96.63
2018-11-05T02:10:51.523Z,92.60
2018-11-05T02:13:19.736Z,102.37
2018-11-05T02:15:47.828Z,96.77
2018-11-05T02:18:16.005Z,89.93
2018-11-05T02:20:44.170Z,119.00
2018-11-05T02:23:12.906Z,89.23
2018-11-05T02:25:41.035Z,109.90
2018-11-05T02:28:09.162Z,115.03
2018-11-05T02:30:37.327Z,99.13
2018-11-05T02:33:05.493Z,95.33
2018-11-05T02:35:33.633Z,96.27
2018-11-05T02:38:01.810Z,97.60
2018-11-05T02:40:30.021Z,98.63
2018-11-05T02:42:58.130Z,104.83
2018-11-05T02:45:26.264Z,97.90
2018-11-05T02:47:54.453Z,104.10
2018-11-05T02:50:22.596Z,106.03
2018-11-05T02:52:50.792Z,104.93
2018-11-05T02:55:18.943Z,96.40
2018-11-05T02:57:47.170Z,102.73
2018-11-05T03:00:16.610Z,85.63
2018-11-05T03:02:51.553Z,99.37
2018-11-05T03:05:20.346Z,97.70
2018-11-05T03:07:49.360Z,112.70
2018-11-05T03:10:17.826Z,93.20
2018-11-05T03:12:46.801Z,103.70
2018-11-05T03:15:16.020Z,106.80
2018-11-05T03:17:44.145Z,97.83
2018-11-05T03:20:13.196Z,95.43
2018-11-05T03:22:41.817Z,98.53
2018-11-05T03:25:09.996Z,92.17
2018-11-05T03:27:38.681Z,85.13
2018-11-05T03:30:09.258Z,89.43
2018-11-05T03:32:37.383Z,93.83
2018-11-05T03:35:06.691Z,88.27
2018-11-05T03:37:34.839Z,83.37
2018-11-05T03:40:02.963Z,83.43
2018-11-05T03:42:31.159Z,97.03
2018-11-05T03:44:59.352Z,106.63
2018-11-05T03:47:27.461Z,101.30
2018-11-05T03:49:55.659Z,97.43
2018-11-05T03:52:23.791Z,88.67
2018-11-05T03:54:52.023Z,86.13
2018-11-05T03:57:20.203Z,98.37
2018-11-05T03:59:48.345Z,84.60
2018-11-05T04:02:16.506Z,75.23
2018-11-05T04:04:44.645Z,83.97
2018-11-05T04:07:12.949Z,100.43
2018-11-05T04:09:41.096Z,96.60
2018-11-05T04:12:09.347Z,82.30
2018-11-05T04:14:37.485Z,79.00
2018-11-05T04:17:06.161Z,92.00
2018-11-05T04:19:34.293Z,86.00
2018-11-05T04:22:02.488Z,82.10
2018-11-05T04:24:30.631Z,84.90
2018-11-05T04:26:58.815Z,93.53
2018-11-05T04:29:26.948Z,92.77
2018-11-05T04:31:55.095Z,86.73
2018-11-05T04:34:23.254Z,89.50
2018-11-05T04:36:51.435Z,89.57
2018-11-05T04:39:19.581Z,69.80
2018-11-05T04:41:47.812Z,80.43
2018-11-05T04:44:16.005Z,82.00
2018-11-05T04:46:44.161Z,95.80
2018-11-05T04:49:12.329Z,77.87
2018-11-05T04:51:40.502Z,81.17
2018-11-05T04:54:08.711Z,83.43
2018-11-05T04:56:37.483Z,78.90
2018-11-05T04:59:06.415Z,72.33
2018-11-05T05:01:34.814Z,86.27
2018-11-05T05:04:02.981Z,79.53
2018-11-05T05:06:31.145Z,72.57
2018-11-05T05:08:59.323Z,71.63
2018-11-05T05:11:27.522Z,84.07
2018-11-05T05:13:55.671Z,77.87
2018-11-05T05:16:23.901Z,85.40
2018-11-05T05:18:51.987Z,83.57
2018-11-05T05:21:20.103Z,72.53
2018-11-05T05:23:48.223Z,77.73
2018-11-05T05:26:16.339Z,87.43
2018-11-05T05:28:44.500Z,80.67
2018-11-05T05:31:12.679Z,98.90
2018-11-05T05:33:40.893Z,88.03
2018-11-05T05:36:09.077Z,87.20
2018-11-05T05:38:37.267Z,81.97
2018-11-05T05:41:11.461Z,90.23
2018-11-05T05:43:39.646Z,91.53
2018-11-05T05:46:07.860Z,91.20
2018-11-05T05:48:36.094Z,87.80
2018-11-05T05:51:04.398Z,85.00
2018-11-05T05:53:33.792Z,83.77
2018-11-05T05:56:01.956Z,82.17
2018-11-05T05:58:30.276Z,77.77
2018-11-05T06:00:58.426Z,78.40
2018-11-05T06:03:26.604Z,81.67
2018-11-05T06:05:54.775Z,79.90
2018-11-05T06:08:22.942Z,79.40
2018-11-05T06:10:51.163Z,76.03
2018-11-05T06:13:19.302Z,77.30
2018-11-05T06:15:47.512Z,75.67
2018-11-05T06:18:15.605Z,80.07
2018-11-05T06:20:43.749Z,82.50
2018-11-05T06:23:12.011Z,74.93
2018-11-05T06:25:40.251Z,74.83
2018-11-05T06:28:08.489Z,79.97
2018-11-05T06:30:36.659Z,87.27
2018-11-05T06:33:05.385Z,69.90
2018-11-05T06:35:34.250Z,83.23
2018-11-05T06:38:03.400Z,83.80
2018-11-05T06:40:31.741Z,75.60
2018-11-05T06:42:59.842Z,72.60
2018-11-05T06:45:27.997Z,72.97
2018-11-05T06:47:56.142Z,64.17
2018-11-05T06:50:25.572Z,71.50
2018-11-05T06:52:53.860Z,80.23
2018-11-05T06:55:21.952Z,73.00
2018-11-05T06:57:50.117Z,75.17
2018-11-05T07:00:22.392Z,70.57
2018-11-05T07:02:50.595Z,74.43
2018-11-05T07:05:19.013Z,62.17
2018-11-05T07:07:47.320Z,77.07
2018-11-05T07:10:16.208Z,72.70
2018-11-05T07:12:44.791Z,68.00
2018-11-05T07:15:16.156Z,68.43
2018-11-05T07:17:45.534Z,66.43
2018-11-05T07:20:14.976Z,64.97
2018-11-05T07:22:44.228Z,81.57
2018-11-05T07:25:13.592Z,67.83
2018-11-05T07:27:42.084Z,68.73
2018-11-05T07:30:12.092Z,63.73
2018-11-05T07:32:40.331Z,71.57
2018-11-05T07:35:10.135Z,72.77
2018-11-05T07:37:38.412Z,71.03
2018-11-05T07:40:07.831Z,63.53
2018-11-05T07:42:36.091Z,74.60
2018-11-05T07:45:05.404Z,65.17
2018-11-05T07:47:33.557Z,64.80
2018-11-05T07:50:01.765Z,66.83
2018-11-05T07:52:30.898Z,66.63
2018-11-05T07:54:59.825Z,63.73
2018-11-05T07:57:28.126Z,58.67
2018-11-05T07:59:56.366Z,64.07
2018-11-05T08:02:24.502Z,64.47
2018-11-05T08:04:52.716Z,67.13
2018-11-05T08:07:21.090Z,69.20
2018-11-05T08:09:49.280Z,70.10
2018-11-05T08:12:17.432Z,64.57
2018-11-05T08:14:45.614Z,62.87
2018-11-05T08:17:13.781Z,85.07
2018-11-05T08:19:41.920Z,69.67
2018-11-05T08:22:10.100Z,68.63
2018-11-05T08:24:38.280Z,63.07
2018-11-05T08:27:06.820Z,65.13
2018-11-05T08:29:34.994Z,68.13
2018-11-05T08:32:03.183Z,66.03
2018-11-05T08:34:31.416Z,62.77
2018-11-05T08:36:59.718Z,63.77
2018-11-05T08:39:27.848Z,66.63
2018-11-05T08:41:55.968Z,58.20
2018-11-05T08:44:24.081Z,74.67
2018-11-05T08:46:52.360Z,70.97
2018-11-05T08:49:20.567Z,80.43
2018-11-05T08:51:49.098Z,65.50
2018-11-05T08:54:17.064Z,60.47
2018-11-05T08:56:45.149Z,66.50
2018-11-05T08:59:13.274Z,59.00
2018-11-05T09:01:41.442Z,64.50
2018-11-05T09:04:09.881Z,63.00
2018-11-05T09:06:37.982Z,59.57
2018-11-05T09:09:08.052Z,64.00
2018-11-05T09:11:36.691Z,62.20
2018-11-05T09:14:04.582Z,58.50
2018-11-05T09:16:32.813Z,66.13
2018-11-05T09:19:00.972Z,65.77
2018-11-05T09:21:29.170Z,60.77
2018-11-05T09:23:57.302Z,64.50
2018-11-05T09:26:25.428Z,65.33
2018-11-05T09:28:53.598Z,64.43
2018-11-05T09:31:21.781Z,63.63
2018-11-05T09:33:50.038Z,62.63
2018-11-05T09:36:18.179Z,64.10
2018-11-05T09:38:46.305Z,71.43
2018-11-05T09:41:14.476Z,66.50
2018-11-05T09:43:42.580Z,66.43
2018-11-05T09:46:10.760Z,65.90
2018-11-05T09:48:38.935Z,66.13
2018-11-05T09:51:07.254Z,66.03
2018-11-05T09:53:35.502Z,63.57
2018-11-05T09:56:03.648Z,81.73
2018-11-05T09:58:32.048Z,72.63
2018-11-05T10:01:00.336Z,67.77
2018-11-05T10:03:28.924Z,64.17
2018-11-05T10:05:57.022Z,71.63
2018-11-05T10:08:26.216Z,58.20
2018-11-05T10:10:54.621Z,69.50
2018-11-05T10:13:22.814Z,53.03
2018-11-05T10:15:50.991Z,62.23
2018-11-05T10:18:19.432Z,60.97
2018-11-05T10:20:47.593Z,55.50
2018-11-05T10:23:16.007Z,61.63
2018-11-05T10:25:44.279Z,65.43
2018-11-05T10:28:12.469Z,54.23
2018-11-05T10:30:40.722Z,51.10
2018-11-05T10:33:09.001Z,64.27
2018-11-05T10:35:42.471Z,54.87
2018-11-05T10:38:10.754Z,51.80
2018-11-05T10:40:40.392Z,62.43
2018-11-05T10:43:08.675Z,54.87
2018-11-05T10:45:37.182Z,52.50
2018-11-05T10:48:05.486Z,50.40
2018-11-05T10:50:33.754Z,51.87
2018-11-05T10:53:01.896Z,64.57
2018-11-05T10:55:30.161Z,52.30
2018-11-05T10:57:58.482Z,61.20
2018-11-05T11:01:33.025Z,61.77
2018-11-05T11:04:06.904Z,58.07
2018-11-05T11:06:34.945Z,53.17
2018-11-05T11:09:03.541Z,54.63
2018-11-05T11:11:31.721Z,68.53
2018-11-05T11:13:59.988Z,63.67
2018-11-05T11:16:28.391Z,55.27
2018-11-05T11:18:56.660Z,52.90
2018-11-05T11:21:24.903Z,53.30
2018-11-05T11:23:53.105Z,49.60
2018-11-05T11:26:22.407Z,56.70
2018-11-05T11:28:51.576Z,55.00
2018-11-05T11:31:19.702Z,53.80
2018-11-05T11:33:47.986Z,47.57
2018-11-05T11:36:16.286Z,50.50
2018-11-05T11:38:44.458Z,51.83
2018-11-05T11:41:12.682Z,49.27
2018-11-05T11:43:40.919Z,44.03
2018-11-05T11:46:09.184Z,50.00
2018-11-05T11:48:37.323Z,53.03
2018-11-05T11:51:05.982Z,54.43
2018-11-05T11:53:34.349Z,49.47
2018-11-05T11:56:02.401Z,53.03
2018-11-05T11:58:30.693Z,52.07
2018-11-05T12:00:58.928Z,48.97
2018-11-05T12:03:27.103Z,48.30
2018-11-05T12:05:55.291Z,49.43
2018-11-05T12:08:23.439Z,69.13
2018-11-05T12:10:51.584Z,58.20
2018-11-05T12:13:19.898Z,50.20
2018-11-05T12:15:48.026Z,51.80
2018-11-05T12:18:16.201Z,52.83
2018-11-05T12:20:44.443Z,64.10
2018-11-05T12:23:12.780Z,52.93
2018-11-05T12:25:40.923Z,64.67
2018-11-05T12:28:09.030Z,49.17
2018-11-05T12:30:37.993Z,59.73
2018-11-05T12:33:06.607Z,53.30
2018-11-05T12:35:34.801Z,52.70
2018-11-05T12:38:03.041Z,46.40
2018-11-05T12:40:31.323Z,50.43
2018-11-05T12:42:59.611Z,51.30
2018-11-05T12:45:27.775Z,48.90
2018-11-05T12:47:55.937Z,46.83
2018-11-05T12:50:24.681Z,55.47
2018-11-05T12:52:54.243Z,51.60
2018-11-05T12:55:23.365Z,47.50
2018-11-05T12:57:51.726Z,53.30
2018-11-05T13:00:23.505Z,58.33
2018-11-05T13:02:52.763Z,40.73
2018-11-05T13:05:21.258Z,49.83
2018-11-05T13:07:49.371Z,56.53
2018-11-05T13:10:17.681Z,46.23
2018-11-05T13:12:45.889Z,59.50
2018-11-05T13:15:14.867Z,59.13
2018-11-05T13:17:43.019Z,44.43
2018-11-05T13:20:14.851Z,48.80
2018-11-05T13:22:43.598Z,50.80
2018-11-05T13:25:12.143Z,56.13
2018-11-05T13:27:41.341Z,51.30
2018-11-05T13:30:10.485Z,58.07
2018-11-05T13:32:38.946Z,57.73
2018-11-05T13:35:08.542Z,48.63
2018-11-05T13:37:37.121Z,58.37
2018-11-05T13:40:05.413Z,54.27
2018-11-05T13:42:33.593Z,60.13
2018-11-05T13:45:01.795Z,45.40
2018-11-05T13:47:30.532Z,45.57
2018-11-05T13:49:58.464Z,49.47
2018-11-05T13:52:26.957Z,60.10
2018-11-05T13:54:55.384Z,51.60
2018-11-05T13:57:23.490Z,59.10
2018-11-05T13:59:52.547Z,59.37
2018-11-05T14:02:20.901Z,46.93
2018-11-05T14:04:49.259Z,55.03
2018-11-05T14:07:17.474Z,52.53
2018-11-05T14:09:45.617Z,54.63
2018-11-05T14:12:13.821Z,55.47
2018-11-05T14:14:42.141Z,47.43
2018-11-05T14:17:10.327Z,62.67
2018-11-05T14:19:38.512Z,48.50
2018-11-05T14:22:06.686Z,54.67
2018-11-05T14:24:34.913Z,47.07
2018-11-05T14:27:03.241Z,59.83
2018-11-05T14:29:31.738Z,52.83
2018-11-05T14:31:59.697Z,51.40
2018-11-05T14:34:27.883Z,48.17
2018-11-05T14:36:56.214Z,53.60
2018-11-05T14:39:24.314Z,61.47
2018-11-05T14:41:52.553Z,57.83
2018-11-05T14:44:20.868Z,51.30
2018-11-05T14:46:49.007Z,51.90
2018-11-05T14:49:17.251Z,49.57
2018-11-05T14:51:45.725Z,59.17
2018-11-05T14:54:13.920Z,57.70
2018-11-05T14:56:42.147Z,51.67
2018-11-05T14:59:10.321Z,60.80
2018-11-05T15:01:38.554Z,53.50
2018-11-05T15:04:07.063Z,59.87
2018-11-05T15:06:35.219Z,44.77
2018-11-05T15:09:04.779Z,48.63
2018-11-05T15:11:33.032Z,53.47
2018-11-05T15:14:01.202Z,47.50
2018-11-05T15:16:30.337Z,60.40
2018-11-05T15:18:58.669Z,51.03
2018-11-05T15:21:26.707Z,47.83
2018-11-05T15:23:54.816Z,49.97
2018-11-05T15:26:22.964Z,51.80
2018-11-05T15:28:51.283Z,46.47
2018-11-05T15:31:19.456Z,47.57
2018-11-05T15:33:47.602Z,48.20
2018-11-05T15:36:15.717Z,42.40
2018-11-05T15:38:43.859Z,41.50
2018-11-05T15:41:12.008Z,43.93
2018-11-05T15:43:40.183Z,55.33
2018-11-05T15:46:08.333Z,46.87
2018-11-05T15:48:36.527Z,47.77
2018-11-05T15:51:04.927Z,48.20
2018-11-05T15:53:33.354Z,47.00
2018-11-05T15:56:01.155Z,46.10
2018-11-05T15:58:29.305Z,47.20
2018-11-05T16:00:57.471Z,47.97
2018-11-05T16:03:25.681Z,43.70
2018-11-05T16:05:53.813Z,42.13
2018-11-05T16:08:21.967Z,47.80
2018-11-05T16:10:50.167Z,46.70
2018-11-05T16:13:18.353Z,43.80
2018-11-05T16:15:46.532Z,42.37
2018-11-05T16:18:14.793Z,45.60
2018-11-05T16:20:43.033Z,71.93
2018-11-05T16:23:11.179Z,51.30
2018-11-05T16:25:39.452Z,51.43
2018-11-05T16:28:07.586Z,54.53
2018-11-05T16:30:35.810Z,43.53
2018-11-05T16:33:03.898Z,43.50
2018-11-05T16:35:32.041Z,49.10
2018-11-05T16:38:00.207Z,49.07
2018-11-05T16:40:28.393Z,42.93
2018-11-05T16:42:56.600Z,57.57
2018-11-05T16:45:24.768Z,58.73
2018-11-05T16:47:52.913Z,57.00
2018-11-05T16:50:22.810Z,55.20
2018-11-05T16:52:51.037Z,55.57
2018-11-05T16:55:19.206Z,48.17
2018-11-05T16:57:49.205Z,52.73
2018-11-05T17:00:17.567Z,46.90
2018-11-05T17:02:46.561Z,49.73
2018-11-05T17:05:14.650Z,54.10
2018-11-05T17:07:42.766Z,57.97
2018-11-05T17:10:12.049Z,60.43
2018-11-05T17:12:40.540Z,49.63
2018-11-05T17:15:10.020Z,49.20
2018-11-05T17:17:38.500Z,52.67
2018-11-05T17:20:08.952Z,51.07
2018-11-05T17:22:37.135Z,58.33
2018-11-05T17:25:06.277Z,56.03
2018-11-05T17:27:34.464Z,58.60
2018-11-05T17:30:02.673Z,48.90
2018-11-05T17:32:30.801Z,58.97
2018-11-05T17:34:58.925Z,59.83
2018-11-05T17:37:27.057Z,55.77
2018-11-05T17:39:56.468Z,92.40
2018-11-05T17:42:24.621Z,53.00
2018-11-05T17:44:52.824Z,52.90
2018-11-05T17:47:20.954Z,45.93
2018-11-05T17:49:49.211Z,42.67
2018-11-05T17:52:17.385Z,51.07
2018-11-05T17:54:46.134Z,49.93
2018-11-05T17:57:14.359Z,56.03
2018-11-05T17:59:42.484Z,47.33
2018-11-05T18:02:14.867Z,46.77
2018-11-05T18:04:43.083Z,48.93
2018-11-05T18:07:11.255Z,61.50
2018-11-05T18:09:39.404Z,50.87
2018-11-05T18:12:07.559Z,57.03
2018-11-05T18:14:35.683Z,47.60
2018-11-05T18:17:03.843Z,53.30
2018-11-05T18:19:32.047Z,49.57
2018-11-05T18:22:00.166Z,47.33
2018-11-05T18:24:28.489Z,47.97
2018-11-05T18:26:56.522Z,56.63
2018-11-05T18:29:24.733Z,51.20
2018-11-05T18:31:52.920Z,52.63
2018-11-05T18:34:21.076Z,46.63
2018-11-05T18:36:49.234Z,46.60
2018-11-05T18:39:17.378Z,53.43
2018-11-05T18:41:45.506Z,46.33
2018-11-05T18:44:13.654Z,49.50
2018-11-05T18:46:42.213Z,50.63
2018-11-05T18:49:10.396Z,48.87
2018-11-05T18:51:38.604Z,60.93
2018-11-05T18:54:06.765Z,45.07
2018-11-05T18:56:34.975Z,52.83
2018-11-05T18:59:03.242Z,57.67
2018-11-05T19:01:32.074Z,55.73
2018-11-05T19:04:00.287Z,54.30
2018-11-05T19:06:28.598Z,52.60
2018-11-05T19:08:56.835Z,53.73
2018-11-05T19:11:25.619Z,92.23
2018-11-05T19:13:53.787Z,64.73
2018-11-05T19:16:21.989Z,76.83
2018-11-05T19:18:50.114Z,57.30
2018-11-05T19:21:18.394Z,51.07
2018-11-05T19:23:46.734Z,57.43
2018-11-05T19:26:14.806Z,69.30
2018-11-05T19:28:43.106Z,47.23
2018-11-05T19:31:11.127Z,43.00
2018-11-05T19:33:39.300Z,46.33
2018-11-05T19:36:07.773Z,69.90
2018-11-05T19:38:36.086Z,41.33
2018-11-05T19:41:04.479Z,45.37
2018-11-05T19:43:32.836Z,44.23
2018-11-05T19:46:01.717Z,40.10
2018-11-05T19:48:29.936Z,54.43
2018-11-05T19:50:58.086Z,43.63
2018-11-05T19:53:26.308Z,48.67
2018-11-05T19:55:54.493Z,37.03
2018-11-05T19:58:22.692Z,42.10
2018-11-05T20:00:51.622Z,40.00
2018-11-05T20:03:19.670Z,38.40
2018-11-05T20:05:50.152Z,41.53
2018-11-05T20:08:18.246Z,44.03
2018-11-05T20:10:46.414Z,46.03
2018-11-05T20:13:14.584Z,39.33
2018-11-05T20:15:42.832Z,36.10
2018-11-05T20:18:11.004Z,32.53
2018-11-05T20:20:39.134Z,40.07
2018-11-05T20:23:07.310Z,36.60
2018-11-05T20:25:35.476Z,37.53
2018-11-05T20:28:03.909Z,36.87
2018-11-05T20:30:32.070Z,34.70
2018-11-05T20:33:00.617Z,34.00
2018-11-05T20:35:28.519Z,35.53
2018-11-05T20:37:56.761Z,36.50
2018-11-05T20:40:25.023Z,36.03
2018-11-05T20:42:53.610Z,29.57
2018-11-05T20:45:22.501Z,37.10
2018-11-05T20:47:50.710Z,29.70
2018-11-05T20:50:19.097Z,34.07
2018-11-05T20:52:47.578Z,41.57
2018-11-05T20:55:16.821Z,36.17
2018-11-05T20:57:45.147Z,33.77
2018-11-05T21:00:14.846Z,39.03
2018-11-05T21:02:43.489Z,37.90
2018-11-05T21:05:11.676Z,32.50
2018-11-05T21:07:40.746Z,31.73
2018-11-05T21:10:09.965Z,32.40
2018-11-05T21:12:38.822Z,33.80
2018-11-05T21:15:11.385Z,37.57
2018-11-05T21:17:39.524Z,35.00
2018-11-05T21:20:07.813Z,34.27
2018-11-05T21:22:36.077Z,31.40
2018-11-05T21:25:04.494Z,34.70
2018-11-05T21:27:32.830Z,29.70
2018-11-05T21:30:01.059Z,30.27
2018-11-05T21:32:29.353Z,32.70
2018-11-05T21:34:57.659Z,31.03
2018-11-05T21:37:25.818Z,34.37
2018-11-05T21:39:54.047Z,31.13
2018-11-05T21:42:22.270Z,29.30
2018-11-05T21:44:50.584Z,33.87
2018-11-05T21:47:19.374Z,33.37
2018-11-05T21:49:47.521Z,29.77
2018-11-05T21:52:15.722Z,27.23
2018-11-05T21:54:43.888Z,28.13
2018-11-05T21:57:12.025Z,31.77
2018-11-05T21:59:40.259Z,25.17
2018-11-05T22:02:08.468Z,34.03
2018-11-05T22:04:36.598Z,30.27
2018-11-05T22:07:04.931Z,30.60
2018-11-05T22:09:33.073Z,28.93
2018-11-05T22:12:01.215Z,28.90
2018-11-05T22:14:29.456Z,30.60
2018-11-05T22:16:57.634Z,47.27
2018-11-05T22:19:25.845Z,30.47
2018-11-05T22:21:54.005Z,37.33
2018-11-05T22:24:22.160Z,24.30
2018-11-05T22:26:50.316Z,28.60
2018-11-05T22:29:18.468Z,25.47
2018-11-05T22:31:46.606Z,27.30
2018-11-05T22:34:14.735Z,24.97
2018-11-05T22:36:42.839Z,23.63
2018-11-05T22:39:11.024Z,29.27
2018-11-05T22:41:39.396Z,25.27
2018-11-05T22:44:08.355Z,27.73
2018-11-05T22:46:37.324Z,22.03
2018-11-05T22:49:05.455Z,24.57
2018-11-05T22:51:33.666Z,22.40
2018-11-05T22:54:02.344Z,25.20
2018-11-05T22:56:30.531Z,24.70
2018-11-05T22:58:58.703Z,22.20
2018-11-05T23:42:08.793Z,21.83
2018-11-05T23:44:37.090Z,22.20
2018-11-05T23:47:05.825Z,21.60
2018-11-05T23:49:34.128Z,18.77
2018-11-05T23:52:02.338Z,20.77
2018-11-05T23:54:30.546Z,22.20
2018-11-05T23:56:59.679Z,19.83
2018-11-05T23:59:27.955Z,18.30
